sensor_id;sensor_type;location;lat;lon;timestamp;P1;durP1;ratioP1;P2;durP2;ratioP2
7253;SDS011;4060;49.186;9.226;2023-05-10T00:02:06;1.30;;;1.20;;
7253;SDS011;4060;49.186;9.226;2023-05-10T00:04:38;1.10;;;1.00;;
7253;SDS011;4060;49.186;9.226;2023-05-10T00:07:07;2.95;;;1.10;;
7253;SDS011;4060;49.186;9.226;2023-05-10T00:09:38;1.40;;;1.20;;
7253;SDS011;4060;49.186;9.226;2023-05-10T00:12:07;1.08;;;1.02;;
7253;SDS011;4060;49.186;9.226;2023-05-10T00:14:36;0.90;;;0.90;;
7253;SDS011;4060;49.186;9.226;2023-05-10T00:17:06;0.80;;;0.80;;
7253;SDS011;4060;49.186;9.226;2023-05-10T00:19:37;0.82;;;0.80;;
7253;SDS011;4060;49.186;9.226;2023-05-10T00:22:06;0.80;;;0.80;;
7253;SDS011;4060;49.186;9.226;2023-05-10T00:24:36;0.90;;;0.90;;
7253;SDS011;4060;49.186;9.226;2023-05-10T00:27:06;1.60;;;0.70;;
7253;SDS011;4060;49.186;9.226;2023-05-10T00:29:36;0.65;;;0.65;;
7253;SDS011;4060;49.186;9.226;2023-05-10T00:32:06;1.42;;;0.77;;
7253;SDS011;4060;49.186;9.226;2023-05-10T00:34:37;0.57;;;0.57;;
7253;SDS011;4060;49.186;9.226;2023-05-10T00:37:07;0.70;;;0.70;;
7253;SDS011;4060;49.186;9.226;2023-05-10T00:39:36;0.95;;;0.63;;
7253;SDS011;4060;49.186;9.226;2023-05-10T00:42:06;0.90;;;0.90;;
7253;SDS011;4060;49.186;9.226;2023-05-10T00:44:35;1.17;;;0.65;;
7253;SDS011;4060;49.186;9.226;2023-05-10T00:47:04;1.05;;;0.70;;
7253;SDS011;4060;49.186;9.226;2023-05-10T00:49:34;0.70;;;0.70;;
7253;SDS011;4060;49.186;9.226;2023-05-10T00:52:07;0.60;;;0.60;;
7253;SDS011;4060;49.186;9.226;2023-05-10T00:54:38;0.85;;;0.85;;
7253;SDS011;4060;49.186;9.226;2023-05-10T00:57:07;0.50;;;0.50;;
7253;SDS011;4060;49.186;9.226;2023-05-10T00:59:36;0.60;;;0.60;;
7253;SDS011;4060;49.186;9.226;2023-05-10T01:02:06;0.50;;;0.50;;
7253;SDS011;4060;49.186;9.226;2023-05-10T01:04:38;0.60;;;0.60;;
7253;SDS011;4060;49.186;9.226;2023-05-10T01:07:08;0.70;;;0.70;;
7253;SDS011;4060;49.186;9.226;2023-05-10T01:09:37;0.52;;;0.50;;
7253;SDS011;4060;49.186;9.226;2023-05-10T01:12:06;0.60;;;0.60;;
7253;SDS011;4060;49.186;9.226;2023-05-10T01:14:37;0.52;;;0.52;;
7253;SDS011;4060;49.186;9.226;2023-05-10T01:17:06;0.52;;;0.52;;
7253;SDS011;4060;49.186;9.226;2023-05-10T01:19:39;0.70;;;0.70;;
7253;SDS011;4060;49.186;9.226;2023-05-10T01:22:13;0.70;;;0.70;;
7253;SDS011;4060;49.186;9.226;2023-05-10T01:25:11;0.70;;;0.70;;
7253;SDS011;4060;49.186;9.226;2023-05-10T01:31:10;1.13;;;0.80;;
7253;SDS011;4060;49.186;9.226;2023-05-10T01:33:57;1.52;;;0.80;;
7253;SDS011;4060;49.186;9.226;2023-05-10T01:36:30;0.70;;;0.70;;
7253;SDS011;4060;49.186;9.226;2023-05-10T01:39:02;0.70;;;0.70;;
7253;SDS011;4060;49.186;9.226;2023-05-10T01:41:41;0.88;;;0.80;;
7253;SDS011;4060;49.186;9.226;2023-05-10T01:44:20;0.70;;;0.70;;
7253;SDS011;4060;49.186;9.226;2023-05-10T01:46:58;1.08;;;0.98;;
7253;SDS011;4060;49.186;9.226;2023-05-10T01:49:36;0.70;;;0.70;;
7253;SDS011;4060;49.186;9.226;2023-05-10T01:52:10;0.77;;;0.77;;
7253;SDS011;4060;49.186;9.226;2023-05-10T01:54:44;0.80;;;0.80;;
7253;SDS011;4060;49.186;9.226;2023-05-10T01:57:22;0.82;;;0.82;;
7253;SDS011;4060;49.186;9.226;2023-05-10T01:59:56;1.27;;;0.70;;
7253;SDS011;4060;49.186;9.226;2023-05-10T02:02:27;0.80;;;0.80;;
7253;SDS011;4060;49.186;9.226;2023-05-10T02:05:02;0.80;;;0.80;;
7253;SDS011;4060;49.186;9.226;2023-05-10T02:07:34;0.70;;;0.70;;
7253;SDS011;4060;49.186;9.226;2023-05-10T02:10:05;1.33;;;0.80;;
7253;SDS011;4060;49.186;9.226;2023-05-10T02:12:37;0.88;;;0.80;;
7253;SDS011;4060;49.186;9.226;2023-05-10T02:15:10;1.48;;;0.85;;
7253;SDS011;4060;49.186;9.226;2023-05-10T02:17:40;0.95;;;0.80;;
7253;SDS011;4060;49.186;9.226;2023-05-10T02:20:13;0.70;;;0.70;;
7253;SDS011;4060;49.186;9.226;2023-05-10T02:22:44;1.20;;;0.80;;
7253;SDS011;4060;49.186;9.226;2023-05-10T02:25:15;1.70;;;0.70;;
7253;SDS011;4060;49.186;9.226;2023-05-10T02:27:46;1.40;;;0.68;;
7253;SDS011;4060;49.186;9.226;2023-05-10T02:30:16;0.80;;;0.80;;
7253;SDS011;4060;49.186;9.226;2023-05-10T02:32:47;1.48;;;0.80;;
7253;SDS011;4060;49.186;9.226;2023-05-10T02:35:20;0.68;;;0.68;;
7253;SDS011;4060;49.186;9.226;2023-05-10T02:37:50;0.70;;;0.70;;
7253;SDS011;4060;49.186;9.226;2023-05-10T02:40:20;0.85;;;0.85;;
7253;SDS011;4060;49.186;9.226;2023-05-10T02:42:52;0.80;;;0.80;;
7253;SDS011;4060;49.186;9.226;2023-05-10T02:45:24;0.80;;;0.80;;
7253;SDS011;4060;49.186;9.226;2023-05-10T02:47:57;0.77;;;0.77;;
7253;SDS011;4060;49.186;9.226;2023-05-10T02:50:29;0.80;;;0.80;;
7253;SDS011;4060;49.186;9.226;2023-05-10T02:53:00;1.23;;;0.88;;
7253;SDS011;4060;49.186;9.226;2023-05-10T02:55:36;1.17;;;0.80;;
7253;SDS011;4060;49.186;9.226;2023-05-10T02:58:07;0.88;;;0.82;;
7253;SDS011;4060;49.186;9.226;2023-05-10T03:00:36;0.70;;;0.70;;
7253;SDS011;4060;49.186;9.226;2023-05-10T03:03:06;0.80;;;0.75;;
7253;SDS011;4060;49.186;9.226;2023-05-10T03:05:37;1.00;;;0.88;;
7253;SDS011;4060;49.186;9.226;2023-05-10T03:08:06;1.00;;;0.90;;
7253;SDS011;4060;49.186;9.226;2023-05-10T03:10:37;1.05;;;0.93;;
7253;SDS011;4060;49.186;9.226;2023-05-10T03:13:13;1.48;;;0.90;;
7253;SDS011;4060;49.186;9.226;2023-05-10T03:15:55;0.70;;;0.70;;
7253;SDS011;4060;49.186;9.226;2023-05-10T03:18:28;0.73;;;0.73;;
7253;SDS011;4060;49.186;9.226;2023-05-10T03:21:08;0.70;;;0.70;;
7253;SDS011;4060;49.186;9.226;2023-05-10T03:23:43;0.80;;;0.80;;
7253;SDS011;4060;49.186;9.226;2023-05-10T03:26:17;0.70;;;0.70;;
7253;SDS011;4060;49.186;9.226;2023-05-10T03:28:49;0.80;;;0.80;;
7253;SDS011;4060;49.186;9.226;2023-05-10T03:31:21;0.70;;;0.70;;
7253;SDS011;4060;49.186;9.226;2023-05-10T03:33:50;0.93;;;0.90;;
7253;SDS011;4060;49.186;9.226;2023-05-10T03:36:22;1.55;;;0.98;;
7253;SDS011;4060;49.186;9.226;2023-05-10T03:38:51;0.80;;;0.80;;
7253;SDS011;4060;49.186;9.226;2023-05-10T03:41:20;2.00;;;0.90;;
7253;SDS011;4060;49.186;9.226;2023-05-10T03:43:51;0.80;;;0.80;;
7253;SDS011;4060;49.186;9.226;2023-05-10T03:46:20;0.85;;;0.85;;
7253;SDS011;4060;49.186;9.226;2023-05-10T03:48:50;0.70;;;0.70;;
7253;SDS011;4060;49.186;9.226;2023-05-10T03:51:19;0.55;;;0.55;;
7253;SDS011;4060;49.186;9.226;2023-05-10T03:53:54;0.65;;;0.65;;
7253;SDS011;4060;49.186;9.226;2023-05-10T03:56:23;0.88;;;0.88;;
7253;SDS011;4060;49.186;9.226;2023-05-10T03:58:53;1.70;;;1.02;;
7253;SDS011;4060;49.186;9.226;2023-05-10T04:01:22;1.02;;;1.00;;
7253;SDS011;4060;49.186;9.226;2023-05-10T04:03:52;1.40;;;0.80;;
7253;SDS011;4060;49.186;9.226;2023-05-10T04:06:24;1.80;;;0.90;;
7253;SDS011;4060;49.186;9.226;2023-05-10T04:08:53;0.90;;;0.90;;
7253;SDS011;4060;49.186;9.226;2023-05-10T04:11:26;1.05;;;0.90;;
7253;SDS011;4060;49.186;9.226;2023-05-10T04:13:55;1.52;;;1.00;;
7253;SDS011;4060;49.186;9.226;2023-05-10T04:16:24;2.58;;;1.10;;
7253;SDS011;4060;49.186;9.226;2023-05-10T04:18:54;1.50;;;0.93;;
7253;SDS011;4060;49.186;9.226;2023-05-10T04:21:25;1.15;;;1.15;;
7253;SDS011;4060;49.186;9.226;2023-05-10T04:23:54;1.52;;;1.13;;
7253;SDS011;4060;49.186;9.226;2023-05-10T04:26:24;1.25;;;1.17;;
7253;SDS011;4060;49.186;9.226;2023-05-10T04:28:53;1.45;;;1.30;;
7253;SDS011;4060;49.186;9.226;2023-05-10T04:31:22;1.60;;;1.30;;
7253;SDS011;4060;49.186;9.226;2023-05-10T04:33:52;1.23;;;1.15;;
7253;SDS011;4060;49.186;9.226;2023-05-10T04:36:21;1.73;;;0.95;;
7253;SDS011;4060;49.186;9.226;2023-05-10T04:38:53;1.23;;;1.13;;
7253;SDS011;4060;49.186;9.226;2023-05-10T04:41:22;1.17;;;0.90;;
7253;SDS011;4060;49.186;9.226;2023-05-10T04:43:52;1.33;;;1.23;;
7253;SDS011;4060;49.186;9.226;2023-05-10T04:46:22;1.30;;;1.20;;
7253;SDS011;4060;49.186;9.226;2023-05-10T04:48:51;1.15;;;1.13;;
7253;SDS011;4060;49.186;9.226;2023-05-10T04:51:21;1.63;;;1.10;;
7253;SDS011;4060;49.186;9.226;2023-05-10T04:53:52;1.02;;;1.00;;
7253;SDS011;4060;49.186;9.226;2023-05-10T04:56:22;1.50;;;1.27;;
7253;SDS011;4060;49.186;9.226;2023-05-10T04:58:51;1.70;;;1.60;;
7253;SDS011;4060;49.186;9.226;2023-05-10T05:01:21;1.65;;;1.30;;
7253;SDS011;4060;49.186;9.226;2023-05-10T05:03:51;1.60;;;1.50;;
7253;SDS011;4060;49.186;9.226;2023-05-10T05:06:20;1.38;;;1.30;;
7253;SDS011;4060;49.186;9.226;2023-05-10T05:08:52;1.48;;;1.38;;
7253;SDS011;4060;49.186;9.226;2023-05-10T05:11:22;1.63;;;1.52;;
7253;SDS011;4060;49.186;9.226;2023-05-10T05:13:51;1.75;;;1.52;;
7253;SDS011;4060;49.186;9.226;2023-05-10T05:16:21;1.75;;;1.65;;
7253;SDS011;4060;49.186;9.226;2023-05-10T05:18:50;1.50;;;1.40;;
7253;SDS011;4060;49.186;9.226;2023-05-10T05:21:20;2.25;;;1.67;;
7253;SDS011;4060;49.186;9.226;2023-05-10T05:23:50;2.35;;;2.15;;
7253;SDS011;4060;49.186;9.226;2023-05-10T05:26:21;1.73;;;1.58;;
7253;SDS011;4060;49.186;9.226;2023-05-10T05:28:51;1.95;;;1.85;;
7253;SDS011;4060;49.186;9.226;2023-05-10T05:31:21;2.15;;;1.95;;
7253;SDS011;4060;49.186;9.226;2023-05-10T05:33:50;1.65;;;1.55;;
7253;SDS011;4060;49.186;9.226;2023-05-10T05:36:21;2.20;;;2.10;;
7253;SDS011;4060;49.186;9.226;2023-05-10T05:38:52;2.58;;;2.22;;
7253;SDS011;4060;49.186;9.226;2023-05-10T05:41:21;2.20;;;2.10;;
7253;SDS011;4060;49.186;9.226;2023-05-10T05:43:52;1.92;;;1.83;;
7253;SDS011;4060;49.186;9.226;2023-05-10T05:46:21;2.85;;;2.25;;
7253;SDS011;4060;49.186;9.226;2023-05-10T05:48:51;2.60;;;2.40;;
7253;SDS011;4060;49.186;9.226;2023-05-10T05:51:19;1.83;;;1.73;;
7253;SDS011;4060;49.186;9.226;2023-05-10T05:53:48;2.28;;;2.08;;
7253;SDS011;4060;49.186;9.226;2023-05-10T05:56:19;2.42;;;2.28;;
7253;SDS011;4060;49.186;9.226;2023-05-10T05:58:50;2.38;;;2.17;;
7253;SDS011;4060;49.186;9.226;2023-05-10T06:01:19;2.20;;;2.10;;
7253;SDS011;4060;49.186;9.226;2023-05-10T06:03:49;2.58;;;2.28;;
7253;SDS011;4060;49.186;9.226;2023-05-10T06:06:18;2.35;;;2.00;;
7253;SDS011;4060;49.186;9.226;2023-05-10T06:08:48;2.20;;;2.00;;
7253;SDS011;4060;49.186;9.226;2023-05-10T06:11:17;2.58;;;2.38;;
7253;SDS011;4060;49.186;9.226;2023-05-10T06:13:49;2.50;;;2.30;;
7253;SDS011;4060;49.186;9.226;2023-05-10T06:16:18;2.65;;;2.45;;
7253;SDS011;4060;49.186;9.226;2023-05-10T06:18:47;2.47;;;2.28;;
7253;SDS011;4060;49.186;9.226;2023-05-10T06:21:18;3.45;;;2.03;;
7253;SDS011;4060;49.186;9.226;2023-05-10T06:23:47;2.15;;;2.00;;
7253;SDS011;4060;49.186;9.226;2023-05-10T06:26:17;2.30;;;2.08;;
7253;SDS011;4060;49.186;9.226;2023-05-10T06:28:48;2.22;;;2.03;;
7253;SDS011;4060;49.186;9.226;2023-05-10T06:31:18;2.35;;;2.15;;
7253;SDS011;4060;49.186;9.226;2023-05-10T06:33:47;2.42;;;2.22;;
7253;SDS011;4060;49.186;9.226;2023-05-10T06:36:16;2.25;;;2.03;;
7253;SDS011;4060;49.186;9.226;2023-05-10T06:38:48;2.45;;;2.20;;
7253;SDS011;4060;49.186;9.226;2023-05-10T06:41:18;3.17;;;2.33;;
7253;SDS011;4060;49.186;9.226;2023-05-10T06:43:51;6.75;;;5.32;;
7253;SDS011;4060;49.186;9.226;2023-05-10T06:46:20;5.25;;;4.82;;
7253;SDS011;4060;49.186;9.226;2023-05-10T06:48:52;5.70;;;5.20;;
7253;SDS011;4060;49.186;9.226;2023-05-10T06:51:22;3.42;;;3.13;;
7253;SDS011;4060;49.186;9.226;2023-05-10T06:53:54;3.08;;;2.42;;
7253;SDS011;4060;49.186;9.226;2023-05-10T06:56:24;2.60;;;2.40;;
7253;SDS011;4060;49.186;9.226;2023-05-10T06:58:55;3.38;;;2.08;;
7253;SDS011;4060;49.186;9.226;2023-05-10T07:01:25;3.60;;;2.08;;
7253;SDS011;4060;49.186;9.226;2023-05-10T07:03:55;4.63;;;2.25;;
7253;SDS011;4060;49.186;9.226;2023-05-10T07:06:25;5.00;;;4.45;;
7253;SDS011;4060;49.186;9.226;2023-05-10T07:08:55;8.80;;;8.02;;
7253;SDS011;4060;49.186;9.226;2023-05-10T07:11:24;11.27;;;8.98;;
7253;SDS011;4060;49.186;9.226;2023-05-10T07:13:56;6.65;;;4.13;;
7253;SDS011;4060;49.186;9.226;2023-05-10T07:16:26;4.50;;;3.00;;
7253;SDS011;4060;49.186;9.226;2023-05-10T07:18:55;3.13;;;2.30;;
7253;SDS011;4060;49.186;9.226;2023-05-10T07:21:26;4.20;;;2.47;;
7253;SDS011;4060;49.186;9.226;2023-05-10T07:23:57;2.63;;;1.98;;
7253;SDS011;4060;49.186;9.226;2023-05-10T07:26:27;2.72;;;2.42;;
7253;SDS011;4060;49.186;9.226;2023-05-10T07:29:03;2.13;;;1.98;;
7253;SDS011;4060;49.186;9.226;2023-05-10T07:31:33;2.50;;;2.30;;
7253;SDS011;4060;49.186;9.226;2023-05-10T07:34:03;2.72;;;2.33;;
7253;SDS011;4060;49.186;9.226;2023-05-10T07:36:32;2.13;;;1.90;;
7253;SDS011;4060;49.186;9.226;2023-05-10T07:39:01;2.10;;;1.90;;
7253;SDS011;4060;49.186;9.226;2023-05-10T07:41:31;1.83;;;1.73;;
7253;SDS011;4060;49.186;9.226;2023-05-10T07:44:03;2.22;;;2.03;;
7253;SDS011;4060;49.186;9.226;2023-05-10T07:46:33;1.75;;;1.52;;
7253;SDS011;4060;49.186;9.226;2023-05-10T07:49:03;3.65;;;1.85;;
7253;SDS011;4060;49.186;9.226;2023-05-10T07:51:32;4.45;;;1.80;;
7253;SDS011;4060;49.186;9.226;2023-05-10T07:54:01;2.63;;;1.73;;
7253;SDS011;4060;49.186;9.226;2023-05-10T07:56:36;1.92;;;1.50;;
7253;SDS011;4060;49.186;9.226;2023-05-10T07:59:15;2.15;;;1.70;;
7253;SDS011;4060;49.186;9.226;2023-05-10T08:01:45;3.28;;;1.90;;
7253;SDS011;4060;49.186;9.226;2023-05-10T08:04:14;2.25;;;1.48;;
7253;SDS011;4060;49.186;9.226;2023-05-10T08:06:44;1.63;;;1.27;;
7253;SDS011;4060;49.186;9.226;2023-05-10T08:09:18;2.03;;;1.30;;
7253;SDS011;4060;49.186;9.226;2023-05-10T08:11:49;1.35;;;1.10;;
7253;SDS011;4060;49.186;9.226;2023-05-10T08:14:21;2.20;;;1.17;;
7253;SDS011;4060;49.186;9.226;2023-05-10T08:16:51;1.30;;;1.20;;
7253;SDS011;4060;49.186;9.226;2023-05-10T08:19:21;1.77;;;1.20;;
7253;SDS011;4060;49.186;9.226;2023-05-10T08:21:52;1.10;;;1.00;;
7253;SDS011;4060;49.186;9.226;2023-05-10T08:24:22;1.52;;;1.15;;
7253;SDS011;4060;49.186;9.226;2023-05-10T08:26:52;1.33;;;1.23;;
7253;SDS011;4060;49.186;9.226;2023-05-10T08:29:24;1.25;;;1.15;;
7253;SDS011;4060;49.186;9.226;2023-05-10T08:31:54;4.03;;;0.98;;
7253;SDS011;4060;49.186;9.226;2023-05-10T08:34:24;2.13;;;1.10;;
7253;SDS011;4060;49.186;9.226;2023-05-10T08:36:53;2.70;;;1.10;;
7253;SDS011;4060;49.186;9.226;2023-05-10T08:39:23;1.55;;;1.20;;
7253;SDS011;4060;49.186;9.226;2023-05-10T08:41:59;1.35;;;1.00;;
7253;SDS011;4060;49.186;9.226;2023-05-10T08:44:31;1.85;;;0.90;;
7253;SDS011;4060;49.186;9.226;2023-05-10T08:47:02;1.17;;;0.95;;
7253;SDS011;4060;49.186;9.226;2023-05-10T08:49:34;1.88;;;1.10;;
7253;SDS011;4060;49.186;9.226;2023-05-10T08:52:05;0.95;;;0.95;;
7253;SDS011;4060;49.186;9.226;2023-05-10T08:54:35;1.98;;;1.38;;
7253;SDS011;4060;49.186;9.226;2023-05-10T08:57:05;1.65;;;1.10;;
7253;SDS011;4060;49.186;9.226;2023-05-10T08:59:37;2.30;;;1.20;;
7253;SDS011;4060;49.186;9.226;2023-05-10T09:02:06;0.77;;;0.77;;
7253;SDS011;4060;49.186;9.226;2023-05-10T09:04:38;0.98;;;0.98;;
7253;SDS011;4060;49.186;9.226;2023-05-10T09:07:08;1.30;;;1.00;;
7253;SDS011;4060;49.186;9.226;2023-05-10T09:09:38;2.35;;;1.10;;
7253;SDS011;4060;49.186;9.226;2023-05-10T09:12:08;1.20;;;1.00;;
7253;SDS011;4060;49.186;9.226;2023-05-10T09:14:41;1.92;;;1.20;;
7253;SDS011;4060;49.186;9.226;2023-05-10T09:17:12;4.35;;;0.90;;
7253;SDS011;4060;49.186;9.226;2023-05-10T09:19:42;3.85;;;1.50;;
7253;SDS011;4060;49.186;9.226;2023-05-10T09:22:12;2.70;;;1.10;;
7253;SDS011;4060;49.186;9.226;2023-05-10T09:24:42;2.45;;;1.08;;
7253;SDS011;4060;49.186;9.226;2023-05-10T09:27:12;2.42;;;1.25;;
7253;SDS011;4060;49.186;9.226;2023-05-10T09:29:44;1.10;;;1.05;;
7253;SDS011;4060;49.186;9.226;2023-05-10T09:32:14;1.88;;;1.02;;
7253;SDS011;4060;49.186;9.226;2023-05-10T09:34:43;1.25;;;0.95;;
7253;SDS011;4060;49.186;9.226;2023-05-10T09:37:13;1.58;;;1.15;;
7253;SDS011;4060;49.186;9.226;2023-05-10T09:39:43;2.78;;;1.23;;
7253;SDS011;4060;49.186;9.226;2023-05-10T09:42:13;1.15;;;1.00;;
7253;SDS011;4060;49.186;9.226;2023-05-10T09:44:52;0.80;;;0.80;;
7253;SDS011;4060;49.186;9.226;2023-05-10T09:47:22;1.30;;;1.10;;
7253;SDS011;4060;49.186;9.226;2023-05-10T09:49:55;0.80;;;0.70;;
7253;SDS011;4060;49.186;9.226;2023-05-10T09:52:30;1.35;;;1.13;;
7253;SDS011;4060;49.186;9.226;2023-05-10T09:55:15;0.70;;;0.70;;
7253;SDS011;4060;49.186;9.226;2023-05-10T09:57:46;0.70;;;0.70;;
7253;SDS011;4060;49.186;9.226;2023-05-10T10:00:19;0.90;;;0.90;;
7253;SDS011;4060;49.186;9.226;2023-05-10T10:02:53;2.05;;;0.82;;
7253;SDS011;4060;49.186;9.226;2023-05-10T10:05:28;0.90;;;0.90;;
7253;SDS011;4060;49.186;9.226;2023-05-10T10:08:03;1.85;;;1.10;;
7253;SDS011;4060;49.186;9.226;2023-05-10T10:10:34;2.08;;;1.02;;
7253;SDS011;4060;49.186;9.226;2023-05-10T10:13:11;1.33;;;1.00;;
7253;SDS011;4060;49.186;9.226;2023-05-10T10:15:42;1.15;;;0.98;;
7253;SDS011;4060;49.186;9.226;2023-05-10T10:18:13;1.00;;;1.00;;
7253;SDS011;4060;49.186;9.226;2023-05-10T10:20:43;1.40;;;0.75;;
7253;SDS011;4060;49.186;9.226;2023-05-10T10:23:14;1.58;;;1.13;;
7253;SDS011;4060;49.186;9.226;2023-05-10T10:25:43;0.95;;;0.95;;
7253;SDS011;4060;49.186;9.226;2023-05-10T10:28:24;1.50;;;1.00;;
7253;SDS011;4060;49.186;9.226;2023-05-10T10:31:15;0.93;;;0.90;;
7253;SDS011;4060;49.186;9.226;2023-05-10T10:33:59;0.80;;;0.80;;
7253;SDS011;4060;49.186;9.226;2023-05-10T10:36:41;1.00;;;0.77;;
7253;SDS011;4060;49.186;9.226;2023-05-10T10:39:13;2.67;;;1.80;;
7253;SDS011;4060;49.186;9.226;2023-05-10T10:41:49;2.38;;;0.80;;
7253;SDS011;4060;49.186;9.226;2023-05-10T10:44:24;0.60;;;0.60;;
7253;SDS011;4060;49.186;9.226;2023-05-10T10:47:02;1.17;;;0.80;;
7253;SDS011;4060;49.186;9.226;2023-05-10T10:49:38;2.97;;;0.98;;
7253;SDS011;4060;49.186;9.226;2023-05-10T10:52:22;1.08;;;0.98;;
7253;SDS011;4060;49.186;9.226;2023-05-10T10:55:00;1.38;;;1.08;;
7253;SDS011;4060;49.186;9.226;2023-05-10T10:57:43;1.27;;;1.15;;
7253;SDS011;4060;49.186;9.226;2023-05-10T11:00:25;2.78;;;1.08;;
7253;SDS011;4060;49.186;9.226;2023-05-10T11:03:03;130.75;;;11.38;;
7253;SDS011;4060;49.186;9.226;2023-05-10T11:05:36;166.50;;;19.50;;
7253;SDS011;4060;49.186;9.226;2023-05-10T11:08:08;64.55;;;6.95;;
7253;SDS011;4060;49.186;9.226;2023-05-10T11:10:40;2.25;;;1.30;;
7253;SDS011;4060;49.186;9.226;2023-05-10T11:13:31;3.60;;;1.20;;
7253;SDS011;4060;49.186;9.226;2023-05-10T11:16:14;1.58;;;1.10;;
7253;SDS011;4060;49.186;9.226;2023-05-10T11:19:00;4.05;;;2.05;;
7253;SDS011;4060;49.186;9.226;2023-05-10T11:21:32;19.52;;;17.40;;
7253;SDS011;4060;49.186;9.226;2023-05-10T11:24:13;13.10;;;11.20;;
7253;SDS011;4060;49.186;9.226;2023-05-10T11:26:43;12.77;;;11.10;;
7253;SDS011;4060;49.186;9.226;2023-05-10T11:29:13;10.82;;;9.57;;
7253;SDS011;4060;49.186;9.226;2023-05-10T11:31:43;9.27;;;8.43;;
7253;SDS011;4060;49.186;9.226;2023-05-10T11:37:02;6.90;;;6.28;;
7253;SDS011;4060;49.186;9.226;2023-05-10T11:39:31;6.60;;;6.00;;
7253;SDS011;4060;49.186;9.226;2023-05-10T11:42:01;4.72;;;4.32;;
7253;SDS011;4060;49.186;9.226;2023-05-10T11:44:31;6.03;;;4.97;;
7253;SDS011;4060;49.186;9.226;2023-05-10T11:47:01;4.38;;;3.97;;
7253;SDS011;4060;49.186;9.226;2023-05-10T11:49:33;3.67;;;3.38;;
7253;SDS011;4060;49.186;9.226;2023-05-10T11:52:06;3.30;;;3.00;;
7253;SDS011;4060;49.186;9.226;2023-05-10T11:54:37;4.15;;;3.05;;
7253;SDS011;4060;49.186;9.226;2023-05-10T11:57:14;2.78;;;2.58;;
7253;SDS011;4060;49.186;9.226;2023-05-10T11:59:43;3.03;;;2.38;;
7253;SDS011;4060;49.186;9.226;2023-05-10T12:02:13;2.35;;;2.25;;
7253;SDS011;4060;49.186;9.226;2023-05-10T12:04:45;3.72;;;2.35;;
7253;SDS011;4060;49.186;9.226;2023-05-10T12:07:14;2.40;;;2.20;;
7253;SDS011;4060;49.186;9.226;2023-05-10T12:09:44;2.20;;;2.05;;
7253;SDS011;4060;49.186;9.226;2023-05-10T12:12:35;2.00;;;1.80;;
7253;SDS011;4060;49.186;9.226;2023-05-10T12:15:10;1.83;;;1.73;;
7253;SDS011;4060;49.186;9.226;2023-05-10T12:17:46;2.00;;;1.90;;
7253;SDS011;4060;49.186;9.226;2023-05-10T12:20:20;1.85;;;1.75;;
7253;SDS011;4060;49.186;9.226;2023-05-10T12:22:51;1.85;;;1.45;;
7253;SDS011;4060;49.186;9.226;2023-05-10T12:25:21;1.90;;;1.75;;
7253;SDS011;4060;49.186;9.226;2023-05-10T12:27:52;1.80;;;1.70;;
7253;SDS011;4060;49.186;9.226;2023-05-10T12:30:23;1.52;;;1.42;;
7253;SDS011;4060;49.186;9.226;2023-05-10T12:32:54;2.30;;;1.38;;
7253;SDS011;4060;49.186;9.226;2023-05-10T12:35:32;1.42;;;1.33;;
7253;SDS011;4060;49.186;9.226;2023-05-10T12:38:27;1.38;;;1.27;;
7253;SDS011;4060;49.186;9.226;2023-05-10T12:40:59;2.35;;;1.25;;
7253;SDS011;4060;49.186;9.226;2023-05-10T12:43:29;1.40;;;1.30;;
7253;SDS011;4060;49.186;9.226;2023-05-10T12:46:05;1.48;;;1.30;;
7253;SDS011;4060;49.186;9.226;2023-05-10T12:48:35;1.63;;;1.00;;
7253;SDS011;4060;49.186;9.226;2023-05-10T12:51:12;1.52;;;1.10;;
7253;SDS011;4060;49.186;9.226;2023-05-10T12:53:46;1.20;;;1.15;;
7253;SDS011;4060;49.186;9.226;2023-05-10T12:56:16;1.10;;;1.00;;
7253;SDS011;4060;49.186;9.226;2023-05-10T12:58:46;1.40;;;1.30;;
7253;SDS011;4060;49.186;9.226;2023-05-10T13:01:17;1.45;;;1.25;;
7253;SDS011;4060;49.186;9.226;2023-05-10T13:03:46;1.35;;;1.00;;
7253;SDS011;4060;49.186;9.226;2023-05-10T13:06:18;1.38;;;1.05;;
7253;SDS011;4060;49.186;9.226;2023-05-10T13:08:47;1.35;;;1.20;;
7253;SDS011;4060;49.186;9.226;2023-05-10T13:11:17;1.25;;;1.15;;
7253;SDS011;4060;49.186;9.226;2023-05-10T13:13:48;1.23;;;1.00;;
7253;SDS011;4060;49.186;9.226;2023-05-10T13:16:18;1.20;;;1.10;;
7253;SDS011;4060;49.186;9.226;2023-05-10T13:18:49;1.50;;;1.10;;
7253;SDS011;4060;49.186;9.226;2023-05-10T13:21:21;1.70;;;1.00;;
7253;SDS011;4060;49.186;9.226;2023-05-10T13:23:53;1.23;;;0.98;;
7253;SDS011;4060;49.186;9.226;2023-05-10T13:26:28;1.50;;;1.00;;
7253;SDS011;4060;49.186;9.226;2023-05-10T13:28:57;1.42;;;1.15;;
7253;SDS011;4060;49.186;9.226;2023-05-10T13:31:26;2.00;;;1.00;;
7253;SDS011;4060;49.186;9.226;2023-05-10T13:33:56;1.92;;;1.20;;
7253;SDS011;4060;49.186;9.226;2023-05-10T13:36:30;1.02;;;0.98;;
7253;SDS011;4060;49.186;9.226;2023-05-10T13:39:00;1.08;;;1.02;;
7253;SDS011;4060;49.186;9.226;2023-05-10T13:41:31;1.58;;;1.38;;
7253;SDS011;4060;49.186;9.226;2023-05-10T13:44:06;1.00;;;0.90;;
7253;SDS011;4060;49.186;9.226;2023-05-10T13:46:37;0.95;;;0.95;;
7253;SDS011;4060;49.186;9.226;2023-05-10T13:49:08;1.23;;;1.13;;
7253;SDS011;4060;49.186;9.226;2023-05-10T13:51:45;2.08;;;1.00;;
7253;SDS011;4060;49.186;9.226;2023-05-10T13:54:16;1.60;;;1.05;;
7253;SDS011;4060;49.186;9.226;2023-05-10T13:56:48;1.30;;;1.10;;
7253;SDS011;4060;49.186;9.226;2023-05-10T13:59:20;1.75;;;1.20;;
7253;SDS011;4060;49.186;9.226;2023-05-10T14:01:50;1.20;;;1.10;;
7253;SDS011;4060;49.186;9.226;2023-05-10T14:04:19;0.82;;;0.82;;
7253;SDS011;4060;49.186;9.226;2023-05-10T14:06:51;3.40;;;1.08;;
7253;SDS011;4060;49.186;9.226;2023-05-10T14:09:22;1.50;;;0.77;;
7253;SDS011;4060;49.186;9.226;2023-05-10T14:11:51;0.80;;;0.77;;
7253;SDS011;4060;49.186;9.226;2023-05-10T14:14:22;1.30;;;0.98;;
7253;SDS011;4060;49.186;9.226;2023-05-10T14:16:52;2.35;;;1.00;;
7253;SDS011;4060;49.186;9.226;2023-05-10T14:19:25;1.63;;;0.90;;
7253;SDS011;4060;49.186;9.226;2023-05-10T14:22:02;1.02;;;0.90;;
7253;SDS011;4060;49.186;9.226;2023-05-10T14:24:32;1.85;;;0.85;;
7253;SDS011;4060;49.186;9.226;2023-05-10T14:27:03;2.22;;;1.02;;
7253;SDS011;4060;49.186;9.226;2023-05-10T14:29:35;1.13;;;0.75;;
7253;SDS011;4060;49.186;9.226;2023-05-10T14:32:05;1.67;;;0.90;;
7253;SDS011;4060;49.186;9.226;2023-05-10T14:34:36;1.83;;;1.10;;
7253;SDS011;4060;49.186;9.226;2023-05-10T14:37:09;1.05;;;0.80;;
7253;SDS011;4060;49.186;9.226;2023-05-10T14:39:42;1.25;;;0.90;;
7253;SDS011;4060;49.186;9.226;2023-05-10T14:42:11;1.67;;;0.70;;
7253;SDS011;4060;49.186;9.226;2023-05-10T14:44:41;0.95;;;0.70;;
7253;SDS011;4060;49.186;9.226;2023-05-10T14:47:11;0.63;;;0.63;;
7253;SDS011;4060;49.186;9.226;2023-05-10T14:49:41;0.70;;;0.70;;
7253;SDS011;4060;49.186;9.226;2023-05-10T14:52:12;0.95;;;0.90;;
7253;SDS011;4060;49.186;9.226;2023-05-10T14:54:43;1.30;;;1.00;;
7253;SDS011;4060;49.186;9.226;2023-05-10T14:57:13;2.05;;;0.80;;
7253;SDS011;4060;49.186;9.226;2023-05-10T14:59:45;1.30;;;1.00;;
7253;SDS011;4060;49.186;9.226;2023-05-10T15:02:17;1.00;;;0.80;;
7253;SDS011;4060;49.186;9.226;2023-05-10T15:04:46;1.00;;;0.90;;
7253;SDS011;4060;49.186;9.226;2023-05-10T15:07:19;0.88;;;0.88;;
7253;SDS011;4060;49.186;9.226;2023-05-10T15:09:49;3.35;;;1.10;;
7253;SDS011;4060;49.186;9.226;2023-05-10T15:12:20;1.05;;;0.98;;
7253;SDS011;4060;49.186;9.226;2023-05-10T15:14:50;0.98;;;0.93;;
7253;SDS011;4060;49.186;9.226;2023-05-10T15:17:21;2.58;;;0.90;;
7253;SDS011;4060;49.186;9.226;2023-05-10T15:19:51;1.17;;;1.10;;
7253;SDS011;4060;49.186;9.226;2023-05-10T15:22:26;1.30;;;1.20;;
7253;SDS011;4060;49.186;9.226;2023-05-10T15:24:56;1.27;;;0.80;;
7253;SDS011;4060;49.186;9.226;2023-05-10T15:27:26;1.08;;;0.98;;
7253;SDS011;4060;49.186;9.226;2023-05-10T15:29:56;1.55;;;1.00;;
7253;SDS011;4060;49.186;9.226;2023-05-10T15:32:25;1.25;;;0.90;;
7253;SDS011;4060;49.186;9.226;2023-05-10T15:34:55;0.90;;;0.90;;
7253;SDS011;4060;49.186;9.226;2023-05-10T15:37:30;0.80;;;0.80;;
7253;SDS011;4060;49.186;9.226;2023-05-10T15:40:00;0.73;;;0.73;;
7253;SDS011;4060;49.186;9.226;2023-05-10T15:42:31;1.40;;;0.95;;
7253;SDS011;4060;49.186;9.226;2023-05-10T15:45:01;1.63;;;0.98;;
7253;SDS011;4060;49.186;9.226;2023-05-10T15:47:32;1.55;;;0.90;;
7253;SDS011;4060;49.186;9.226;2023-05-10T15:50:01;1.20;;;1.10;;